sensor_id;sensor_type;location;lat;lon;timestamp;pressure;altitude;pressure_sealevel;temperature;humidity
12475;BME280;6302;42.624;23.334;2023-04-01T00:00:57;92429.69;;;13.21;68.67
12475;BME280;6302;42.624;23.334;2023-04-01T00:03:26;92427.78;;;12.83;70.59
12475;BME280;6302;42.624;23.334;2023-04-01T00:05:54;92422.16;;;12.69;72.33
12475;BME280;6302;42.624;23.334;2023-04-01T00:08:21;92414.69;;;12.64;73.40
12475;BME280;6302;42.624;23.334;2023-04-01T00:10:48;92405.13;;;12.54;74.07
12475;BME280;6302;42.624;23.334;2023-04-01T00:13:15;92430.63;;;12.51;73.96
12475;BME280;6302;42.624;23.334;2023-04-01T00:15:42;92427.66;;;12.49;72.61
12475;BME280;6302;42.624;23.334;2023-04-01T00:18:10;92432.66;;;12.60;74.12
12475;BME280;6302;42.624;23.334;2023-04-01T00:20:38;92426.34;;;12.28;76.43
12475;BME280;6302;42.624;23.334;2023-04-01T00:23:05;92441.19;;;12.13;78.45
12475;BME280;6302;42.624;23.334;2023-04-01T00:25:31;92431.41;;;12.10;78.59
12475;BME280;6302;42.624;23.334;2023-04-01T00:27:58;92436.91;;;12.03;79.16
12475;BME280;6302;42.624;23.334;2023-04-01T00:30:25;92442.09;;;11.94;80.02
12475;BME280;6302;42.624;23.334;2023-04-01T00:32:52;92440.28;;;11.91;80.03
12475;BME280;6302;42.624;23.334;2023-04-01T00:35:20;92435.78;;;11.88;80.33
12475;BME280;6302;42.624;23.334;2023-04-01T00:37:50;92426.34;;;11.87;80.17
12475;BME280;6302;42.624;23.334;2023-04-01T00:40:25;92404.97;;;11.78;79.74
12475;BME280;6302;42.624;23.334;2023-04-01T00:42:52;92404.44;;;11.83;79.57
12475;BME280;6302;42.624;23.334;2023-04-01T00:45:28;92402.09;;;11.72;80.03
12475;BME280;6302;42.624;23.334;2023-04-01T00:47:56;92412.28;;;11.74;80.91
12475;BME280;6302;42.624;23.334;2023-04-01T00:50:25;92412.28;;;11.74;82.36
12475;BME280;6302;42.624;23.334;2023-04-01T00:52:54;92403.56;;;11.73;83.20
12475;BME280;6302;42.624;23.334;2023-04-01T00:55:22;92407.50;;;11.69;83.88
12475;BME280;6302;42.624;23.334;2023-04-01T00:57:50;92410.06;;;11.72;84.47
12475;BME280;6302;42.624;23.334;2023-04-01T01:00:19;92407.22;;;11.63;84.82
12475;BME280;6302;42.624;23.334;2023-04-01T01:02:47;92407.34;;;11.60;84.78
12475;BME280;6302;42.624;23.334;2023-04-01T01:05:20;92399.03;;;11.58;83.40
12475;BME280;6302;42.624;23.334;2023-04-01T01:08:01;92372.34;;;11.49;82.66
12475;BME280;6302;42.624;23.334;2023-04-01T01:10:32;92362.69;;;11.42;83.37
12475;BME280;6302;42.624;23.334;2023-04-01T01:13:07;92371.59;;;11.48;83.92
12475;BME280;6302;42.624;23.334;2023-04-01T01:15:41;92366.31;;;11.48;84.00
12475;BME280;6302;42.624;23.334;2023-04-01T01:18:18;92366.66;;;11.50;83.42
12475;BME280;6302;42.624;23.334;2023-04-01T01:21:03;92366.22;;;11.52;82.81
12475;BME280;6302;42.624;23.334;2023-04-01T01:26:51;92362.56;;;11.46;82.78
12475;BME280;6302;42.624;23.334;2023-04-01T01:32:42;92347.16;;;11.41;84.06
12475;BME280;6302;42.624;23.334;2023-04-01T01:35:20;92347.22;;;11.25;85.47
12475;BME280;6302;42.624;23.334;2023-04-01T01:37:51;92345.84;;;11.20;84.93
12475;BME280;6302;42.624;23.334;2023-04-01T01:40:19;92342.66;;;11.25;83.50
12475;BME280;6302;42.624;23.334;2023-04-01T01:42:49;92346.47;;;11.24;82.85
12475;BME280;6302;42.624;23.334;2023-04-01T01:45:19;92343.06;;;11.24;81.89
12475;BME280;6302;42.624;23.334;2023-04-01T01:47:49;92336.63;;;11.25;81.92
12475;BME280;6302;42.624;23.334;2023-04-01T01:50:19;92337.25;;;11.29;81.98
12475;BME280;6302;42.624;23.334;2023-04-01T01:52:46;92345.53;;;11.31;82.42
12475;BME280;6302;42.624;23.334;2023-04-01T01:55:28;92335.59;;;11.35;81.32
12475;BME280;6302;42.624;23.334;2023-04-01T01:57:58;92309.72;;;11.39;79.15
12475;BME280;6302;42.624;23.334;2023-04-01T02:00:26;92315.78;;;11.39;78.87
12475;BME280;6302;42.624;23.334;2023-04-01T02:02:54;92317.06;;;11.47;77.49
12475;BME280;6302;42.624;23.334;2023-04-01T02:05:25;92314.00;;;11.49;76.94
12475;BME280;6302;42.624;23.334;2023-04-01T02:07:57;92310.69;;;11.73;75.53
12475;BME280;6302;42.624;23.334;2023-04-01T02:10:29;92314.53;;;11.56;77.09
12475;BME280;6302;42.624;23.334;2023-04-01T02:13:01;92306.34;;;11.51;77.69
12475;BME280;6302;42.624;23.334;2023-04-01T02:15:33;92311.66;;;11.51;77.69
12475;BME280;6302;42.624;23.334;2023-04-01T02:18:03;92305.53;;;11.54;77.80
12475;BME280;6302;42.624;23.334;2023-04-01T02:20:36;92301.41;;;11.53;78.09
12475;BME280;6302;42.624;23.334;2023-04-01T02:23:05;92313.78;;;11.56;77.16
12475;BME280;6302;42.624;23.334;2023-04-01T02:25:34;92299.16;;;11.51;78.07
12475;BME280;6302;42.624;23.334;2023-04-01T02:28:04;92308.28;;;11.50;78.05
12475;BME280;6302;42.624;23.334;2023-04-01T02:30:35;92297.25;;;11.52;78.57
12475;BME280;6302;42.624;23.334;2023-04-01T02:33:03;92307.53;;;11.50;78.20
12475;BME280;6302;42.624;23.334;2023-04-01T02:35:33;92304.41;;;11.67;74.02
12475;BME280;6302;42.624;23.334;2023-04-01T02:38:01;92299.38;;;11.57;75.26
12475;BME280;6302;42.624;23.334;2023-04-01T02:40:28;92299.47;;;11.53;77.16
12475;BME280;6302;42.624;23.334;2023-04-01T02:42:55;92303.94;;;11.56;77.86
12475;BME280;6302;42.624;23.334;2023-04-01T02:45:21;92301.81;;;11.51;78.15
12475;BME280;6302;42.624;23.334;2023-04-01T02:47:49;92311.66;;;11.51;77.95
12475;BME280;6302;42.624;23.334;2023-04-01T02:50:16;92311.34;;;11.49;78.33
12475;BME280;6302;42.624;23.334;2023-04-01T02:52:43;92329.06;;;11.52;77.85
12475;BME280;6302;42.624;23.334;2023-04-01T02:55:11;92318.78;;;11.54;77.73
12475;BME280;6302;42.624;23.334;2023-04-01T02:57:38;92323.13;;;11.48;78.35
12475;BME280;6302;42.624;23.334;2023-04-01T03:00:07;92325.44;;;11.46;79.38
12475;BME280;6302;42.624;23.334;2023-04-01T03:02:37;92339.88;;;11.45;78.58
12475;BME280;6302;42.624;23.334;2023-04-01T03:05:05;92342.84;;;11.47;78.61
12475;BME280;6302;42.624;23.334;2023-04-01T03:07:32;92337.03;;;11.52;79.16
12475;BME280;6302;42.624;23.334;2023-04-01T03:09:59;92345.94;;;11.45;78.47
12475;BME280;6302;42.624;23.334;2023-04-01T03:12:27;92348.09;;;11.50;78.00
12475;BME280;6302;42.624;23.334;2023-04-01T03:14:54;92347.31;;;11.50;78.29
12475;BME280;6302;42.624;23.334;2023-04-01T03:17:20;92343.13;;;11.65;71.03
12475;BME280;6302;42.624;23.334;2023-04-01T03:19:47;92327.03;;;11.72;64.96
12475;BME280;6302;42.624;23.334;2023-04-01T03:22:14;92338.28;;;11.76;67.06
12475;BME280;6302;42.624;23.334;2023-04-01T03:24:41;92344.91;;;11.84;70.24
12475;BME280;6302;42.624;23.334;2023-04-01T03:27:08;92348.81;;;11.80;74.60
12475;BME280;6302;42.624;23.334;2023-04-01T03:29:36;92338.66;;;11.62;79.30
12475;BME280;6302;42.624;23.334;2023-04-01T03:32:03;92354.22;;;11.76;73.37
12475;BME280;6302;42.624;23.334;2023-04-01T03:34:29;92351.09;;;11.65;81.78
12475;BME280;6302;42.624;23.334;2023-04-01T03:36:56;92351.41;;;11.67;82.93
12475;BME280;6302;42.624;23.334;2023-04-01T03:39:23;92344.16;;;11.55;86.12
12475;BME280;6302;42.624;23.334;2023-04-01T03:41:50;92338.38;;;11.44;85.79
12475;BME280;6302;42.624;23.334;2023-04-01T03:44:17;92330.75;;;11.46;85.28
12475;BME280;6302;42.624;23.334;2023-04-01T03:46:45;92327.50;;;11.54;77.13
12475;BME280;6302;42.624;23.334;2023-04-01T03:49:12;92317.75;;;11.64;76.11
12475;BME280;6302;42.624;23.334;2023-04-01T03:51:39;92313.34;;;11.73;73.72
12475;BME280;6302;42.624;23.334;2023-04-01T03:54:06;92301.97;;;11.73;76.03
12475;BME280;6302;42.624;23.334;2023-04-01T03:56:32;92291.59;;;11.79;76.41
12475;BME280;6302;42.624;23.334;2023-04-01T03:59:02;92271.53;;;11.78;77.45
12475;BME280;6302;42.624;23.334;2023-04-01T04:01:29;92249.97;;;11.88;77.04
12475;BME280;6302;42.624;23.334;2023-04-01T04:03:58;92241.91;;;11.79;75.09
12475;BME280;6302;42.624;23.334;2023-04-01T04:06:26;92247.09;;;11.83;76.30
12475;BME280;6302;42.624;23.334;2023-04-01T04:08:53;92244.03;;;11.84;76.83
12475;BME280;6302;42.624;23.334;2023-04-01T04:11:22;92236.47;;;11.83;77.14
12475;BME280;6302;42.624;23.334;2023-04-01T04:13:48;92234.78;;;11.89;74.73
12475;BME280;6302;42.624;23.334;2023-04-01T04:16:16;92222.69;;;11.88;72.60
12475;BME280;6302;42.624;23.334;2023-04-01T04:18:43;92224.09;;;11.92;73.14
12475;BME280;6302;42.624;23.334;2023-04-01T04:21:14;92218.78;;;11.92;73.51
12475;BME280;6302;42.624;23.334;2023-04-01T04:23:42;92211.53;;;11.93;74.19
12475;BME280;6302;42.624;23.334;2023-04-01T04:26:11;92211.97;;;11.91;72.73
12475;BME280;6302;42.624;23.334;2023-04-01T04:28:39;92203.47;;;11.71;74.45
12475;BME280;6302;42.624;23.334;2023-04-01T04:31:06;92210.16;;;11.75;75.04
12475;BME280;6302;42.624;23.334;2023-04-01T04:33:33;92201.88;;;11.73;76.87
12475;BME280;6302;42.624;23.334;2023-04-01T04:36:01;92199.34;;;11.70;76.89
12475;BME280;6302;42.624;23.334;2023-04-01T04:38:29;92188.56;;;11.61;77.64
12475;BME280;6302;42.624;23.334;2023-04-01T04:40:56;92184.97;;;11.55;79.54
12475;BME280;6302;42.624;23.334;2023-04-01T04:43:23;92178.28;;;11.50;80.22
12475;BME280;6302;42.624;23.334;2023-04-01T04:45:50;92158.97;;;11.50;80.28
12475;BME280;6302;42.624;23.334;2023-04-01T04:48:17;92166.63;;;11.48;80.09
12475;BME280;6302;42.624;23.334;2023-04-01T04:50:46;92157.91;;;11.47;79.74
12475;BME280;6302;42.624;23.334;2023-04-01T04:53:14;92155.66;;;11.46;79.23
12475;BME280;6302;42.624;23.334;2023-04-01T04:55:45;92154.81;;;11.49;79.88
12475;BME280;6302;42.624;23.334;2023-04-01T04:58:12;92153.53;;;11.53;80.88
12475;BME280;6302;42.624;23.334;2023-04-01T05:00:42;92151.00;;;11.50;79.99
12475;BME280;6302;42.624;23.334;2023-04-01T05:03:10;92162.56;;;11.56;81.73
12475;BME280;6302;42.624;23.334;2023-04-01T05:05:37;92162.56;;;11.43;82.56
12475;BME280;6302;42.624;23.334;2023-04-01T05:08:04;92155.78;;;11.30;84.26
12475;BME280;6302;42.624;23.334;2023-04-01T05:10:31;92150.91;;;11.28;84.56
12475;BME280;6302;42.624;23.334;2023-04-01T05:12:59;92160.31;;;11.29;85.78
12475;BME280;6302;42.624;23.334;2023-04-01T05:15:26;92165.19;;;11.31;85.50
12475;BME280;6302;42.624;23.334;2023-04-01T05:17:54;92151.75;;;11.25;85.50
12475;BME280;6302;42.624;23.334;2023-04-01T05:20:21;92140.91;;;11.20;85.99
12475;BME280;6302;42.624;23.334;2023-04-01T05:22:48;92129.16;;;11.21;86.67
12475;BME280;6302;42.624;23.334;2023-04-01T05:25:15;92131.34;;;11.09;88.78
12475;BME280;6302;42.624;23.334;2023-04-01T05:27:42;92116.81;;;11.14;89.93
12475;BME280;6302;42.624;23.334;2023-04-01T05:30:11;92111.94;;;11.13;89.08
12475;BME280;6302;42.624;23.334;2023-04-01T05:32:38;92110.56;;;10.95;90.51
12475;BME280;6302;42.624;23.334;2023-04-01T05:35:06;92106.41;;;10.94;91.15
12475;BME280;6302;42.624;23.334;2023-04-01T05:37:33;92124.78;;;11.14;91.39
12475;BME280;6302;42.624;23.334;2023-04-01T05:40:00;92126.06;;;11.22;91.71
12475;BME280;6302;42.624;23.334;2023-04-01T05:42:27;92127.44;;;11.27;92.40
12475;BME280;6302;42.624;23.334;2023-04-01T05:44:54;92122.91;;;11.40;92.26
12475;BME280;6302;42.624;23.334;2023-04-01T05:47:22;92123.66;;;11.53;91.21
12475;BME280;6302;42.624;23.334;2023-04-01T05:49:49;92108.69;;;11.71;88.30
12475;BME280;6302;42.624;23.334;2023-04-01T05:52:16;92127.34;;;11.68;88.28
12475;BME280;6302;42.624;23.334;2023-04-01T05:54:43;92111.09;;;11.91;86.98
12475;BME280;6302;42.624;23.334;2023-04-01T05:57:09;92113.81;;;12.00;85.14
12475;BME280;6302;42.624;23.334;2023-04-01T05:59:36;92113.13;;;11.87;84.41
12475;BME280;6302;42.624;23.334;2023-04-01T06:02:03;92116.31;;;11.82;84.69
12475;BME280;6302;42.624;23.334;2023-04-01T06:04:37;92111.84;;;11.92;83.55
12475;BME280;6302;42.624;23.334;2023-04-01T06:07:10;92108.88;;;11.90;83.49
12475;BME280;6302;42.624;23.334;2023-04-01T06:09:37;92116.91;;;11.99;83.36
12475;BME280;6302;42.624;23.334;2023-04-01T06:12:28;92107.56;;;12.07;82.58
12475;BME280;6302;42.624;23.334;2023-04-01T06:15:04;92108.28;;;12.07;79.61
12475;BME280;6302;42.624;23.334;2023-04-01T06:17:44;92113.69;;;12.16;78.72
12475;BME280;6302;42.624;23.334;2023-04-01T06:20:21;92115.03;;;12.33;78.21
12475;BME280;6302;42.624;23.334;2023-04-01T06:23:04;92098.53;;;12.38;73.99
12475;BME280;6302;42.624;23.334;2023-04-01T06:26:01;92114.78;;;12.62;74.30
12475;BME280;6302;42.624;23.334;2023-04-01T06:28:59;92115.28;;;12.70;76.64
12475;BME280;6302;42.624;23.334;2023-04-01T06:31:45;92121.25;;;12.74;78.05
12475;BME280;6302;42.624;23.334;2023-04-01T06:37:23;92086.22;;;12.97;77.15
12475;BME280;6302;42.624;23.334;2023-04-01T06:40:04;92082.69;;;13.00;75.56
12475;BME280;6302;42.624;23.334;2023-04-01T06:42:45;92075.31;;;13.04;73.83
12475;BME280;6302;42.624;23.334;2023-04-01T06:45:28;92074.97;;;12.93;74.33
12475;BME280;6302;42.624;23.334;2023-04-01T06:48:09;92076.31;;;12.97;73.85
12475;BME280;6302;42.624;23.334;2023-04-01T06:50:52;92089.50;;;13.01;74.03
12475;BME280;6302;42.624;23.334;2023-04-01T06:53:30;92099.81;;;12.99;72.25
12475;BME280;6302;42.624;23.334;2023-04-01T06:56:04;92081.84;;;13.03;72.83
12475;BME280;6302;42.624;23.334;2023-04-01T06:58:37;92073.72;;;13.07;71.22
12475;BME280;6302;42.624;23.334;2023-04-01T07:01:07;92065.56;;;13.01;71.99
12475;BME280;6302;42.624;23.334;2023-04-01T07:03:39;92063.22;;;13.03;73.08
12475;BME280;6302;42.624;23.334;2023-04-01T07:06:10;92058.25;;;13.14;73.14
12475;BME280;6302;42.624;23.334;2023-04-01T07:08:43;92055.66;;;13.23;68.64
12475;BME280;6302;42.624;23.334;2023-04-01T07:11:17;92062.16;;;13.22;70.18
12475;BME280;6302;42.624;23.334;2023-04-01T07:13:51;92064.63;;;13.17;72.28
12475;BME280;6302;42.624;23.334;2023-04-01T07:16:23;92049.69;;;13.10;72.79
12475;BME280;6302;42.624;23.334;2023-04-01T07:18:54;92044.59;;;13.03;75.02
12475;BME280;6302;42.624;23.334;2023-04-01T07:21:27;92044.16;;;13.04;74.97
12475;BME280;6302;42.624;23.334;2023-04-01T07:24:01;92049.38;;;13.08;75.57
12475;BME280;6302;42.624;23.334;2023-04-01T07:26:31;92067.78;;;13.02;74.37
12475;BME280;6302;42.624;23.334;2023-04-01T07:28:58;92074.22;;;12.92;76.16
12475;BME280;6302;42.624;23.334;2023-04-01T07:31:45;92071.47;;;12.96;77.12
12475;BME280;6302;42.624;23.334;2023-04-01T07:34:21;92058.47;;;12.98;77.26
12475;BME280;6302;42.624;23.334;2023-04-01T07:36:54;92059.88;;;12.90;77.10
12475;BME280;6302;42.624;23.334;2023-04-01T07:39:36;92070.47;;;12.81;78.86
12475;BME280;6302;42.624;23.334;2023-04-01T07:42:10;92067.31;;;12.95;79.82
12475;BME280;6302;42.624;23.334;2023-04-01T07:44:44;92054.03;;;13.04;78.71
12475;BME280;6302;42.624;23.334;2023-04-01T07:47:28;92055.97;;;13.03;77.10
12475;BME280;6302;42.624;23.334;2023-04-01T07:50:08;92057.03;;;13.06;78.10
12475;BME280;6302;42.624;23.334;2023-04-01T07:52:44;92050.09;;;13.09;79.30
12475;BME280;6302;42.624;23.334;2023-04-01T07:55:20;92056.78;;;12.91;80.42
12475;BME280;6302;42.624;23.334;2023-04-01T07:57:52;92058.16;;;12.96;81.02
12475;BME280;6302;42.624;23.334;2023-04-01T08:00:25;92042.78;;;12.91;80.46
12475;BME280;6302;42.624;23.334;2023-04-01T08:03:07;92047.94;;;12.94;81.86
12475;BME280;6302;42.624;23.334;2023-04-01T08:05:40;92026.69;;;13.03;81.53
12475;BME280;6302;42.624;23.334;2023-04-01T08:08:15;92049.63;;;13.01;81.99
12475;BME280;6302;42.624;23.334;2023-04-01T08:10:49;92017.84;;;12.97;84.94
12475;BME280;6302;42.624;23.334;2023-04-01T08:13:25;92012.00;;;13.12;80.97
12475;BME280;6302;42.624;23.334;2023-04-01T08:16:06;92021.69;;;13.36;76.37
12475;BME280;6302;42.624;23.334;2023-04-01T08:18:43;92019.25;;;13.60;71.72
12475;BME280;6302;42.624;23.334;2023-04-01T08:21:19;92010.88;;;14.07;73.83
12475;BME280;6302;42.624;23.334;2023-04-01T08:23:52;92023.63;;;14.39;72.11
12475;BME280;6302;42.624;23.334;2023-04-01T08:26:28;91980.25;;;14.89;54.19
12475;BME280;6302;42.624;23.334;2023-04-01T08:29:00;91966.84;;;15.40;48.42
12475;BME280;6302;42.624;23.334;2023-04-01T08:31:31;91974.38;;;15.75;47.64
12475;BME280;6302;42.624;23.334;2023-04-01T08:34:01;91967.19;;;16.04;47.60
12475;BME280;6302;42.624;23.334;2023-04-01T08:36:33;91953.78;;;16.43;45.73
12475;BME280;6302;42.624;23.334;2023-04-01T08:39:04;91965.25;;;16.87;44.28
12475;BME280;6302;42.624;23.334;2023-04-01T08:41:53;91951.72;;;17.25;42.73
12475;BME280;6302;42.624;23.334;2023-04-01T08:44:56;91932.03;;;17.63;43.87
12475;BME280;6302;42.624;23.334;2023-04-01T08:47:53;91945.78;;;17.91;42.81
12475;BME280;6302;42.624;23.334;2023-04-01T08:50:54;91955.16;;;17.81;53.38
12475;BME280;6302;42.624;23.334;2023-04-01T08:53:29;91944.16;;;17.59;55.46
12475;BME280;6302;42.624;23.334;2023-04-01T08:56:08;91922.47;;;17.57;48.08
12475;BME280;6302;42.624;23.334;2023-04-01T08:59:02;91955.22;;;17.86;41.42
12475;BME280;6302;42.624;23.334;2023-04-01T09:01:56;91934.63;;;18.18;39.75
12475;BME280;6302;42.624;23.334;2023-04-01T09:04:47;91945.06;;;18.62;41.49
12475;BME280;6302;42.624;23.334;2023-04-01T09:07:32;91915.78;;;18.90;36.42
12475;BME280;6302;42.624;23.334;2023-04-01T09:10:34;91929.63;;;19.14;38.19
12475;BME280;6302;42.624;23.334;2023-04-01T09:13:22;91939.75;;;19.30;35.86
12475;BME280;6302;42.624;23.334;2023-04-01T09:16:13;91913.72;;;19.41;34.20
12475;BME280;6302;42.624;23.334;2023-04-01T09:19:15;91925.78;;;19.57;35.67
12475;BME280;6302;42.624;23.334;2023-04-01T09:21:57;91920.19;;;19.66;35.37
12475;BME280;6302;42.624;23.334;2023-04-01T09:25:01;91916.88;;;19.93;35.55
12475;BME280;6302;42.624;23.334;2023-04-01T09:27:37;91902.66;;;19.76;43.08
12475;BME280;6302;42.624;23.334;2023-04-01T09:30:36;91917.94;;;19.54;43.97
12475;BME280;6302;42.624;23.334;2023-04-01T09:36:20;91918.03;;;18.65;46.98
12475;BME280;6302;42.624;23.334;2023-04-01T09:38:56;91913.06;;;18.33;50.11
12475;BME280;6302;42.624;23.334;2023-04-01T09:41:30;91898.16;;;18.26;50.00
12475;BME280;6302;42.624;23.334;2023-04-01T09:44:02;91898.47;;;18.34;48.59
12475;BME280;6302;42.624;23.334;2023-04-01T09:46:45;91834.28;;;17.99;47.05
12475;BME280;6302;42.624;23.334;2023-04-01T09:49:30;91892.22;;;18.16;46.32
12475;BME280;6302;42.624;23.334;2023-04-01T09:52:19;91894.56;;;18.09;47.97
12475;BME280;6302;42.624;23.334;2023-04-01T09:54:59;91893.53;;;17.81;50.44
12475;BME280;6302;42.624;23.334;2023-04-01T10:00:56;91887.88;;;17.99;49.04
12475;BME280;6302;42.624;23.334;2023-04-01T10:03:59;91875.31;;;17.85;47.17
12475;BME280;6302;42.624;23.334;2023-04-01T10:06:58;91861.19;;;18.10;46.41
12475;BME280;6302;42.624;23.334;2023-04-01T10:09:48;91876.44;;;18.24;45.58
12475;BME280;6302;42.624;23.334;2023-04-01T10:12:53;91847.78;;;18.36;45.02
12475;BME280;6302;42.624;23.334;2023-04-01T10:15:38;91846.19;;;18.49;45.59
12475;BME280;6302;42.624;23.334;2023-04-01T10:18:32;91850.94;;;18.97;44.64
12475;BME280;6302;42.624;23.334;2023-04-01T10:21:22;91833.66;;;19.09;44.06
12475;BME280;6302;42.624;23.334;2023-04-01T10:24:06;91848.34;;;18.71;48.81
12475;BME280;6302;42.624;23.334;2023-04-01T10:26:58;91842.06;;;18.48;49.43
12475;BME280;6302;42.624;23.334;2023-04-01T10:29:54;91843.56;;;18.86;48.40
12475;BME280;6302;42.624;23.334;2023-04-01T10:35:45;91843.56;;;18.86;49.80
12475;BME280;6302;42.624;23.334;2023-04-01T10:38:53;91801.88;;;18.59;47.96
12475;BME280;6302;42.624;23.334;2023-04-01T10:41:38;91786.72;;;18.88;47.01
12475;BME280;6302;42.624;23.334;2023-04-01T10:53:38;91786.28;;;19.54;37.31
12475;BME280;6302;42.624;23.334;2023-04-01T10:56:33;91773.56;;;19.48;38.58
12475;BME280;6302;42.624;23.334;2023-04-01T10:59:28;91794.13;;;19.57;38.61
12475;BME280;6302;42.624;23.334;2023-04-01T11:12:01;91766.63;;;19.25;38.97
12475;BME280;6302;42.624;23.334;2023-04-01T11:15:02;91771.25;;;19.19;40.00
12475;BME280;6302;42.624;23.334;2023-04-01T11:18:14;91777.56;;;19.16;38.53
12475;BME280;6302;42.624;23.334;2023-04-01T11:20:58;91790.28;;;19.16;39.36
12475;BME280;6302;42.624;23.334;2023-04-01T11:23:47;91786.75;;;18.99;40.31
12475;BME280;6302;42.624;23.334;2023-04-01T11:26:28;91785.34;;;18.61;44.72
12475;BME280;6302;42.624;23.334;2023-04-01T11:32:09;91802.31;;;17.95;45.65
12475;BME280;6302;42.624;23.334;2023-04-01T11:34:50;91840.75;;;17.87;46.29
12475;BME280;6302;42.624;23.334;2023-04-01T11:37:36;91854.34;;;17.83;46.87
12475;BME280;6302;42.624;23.334;2023-04-01T11:40:11;91878.41;;;17.58;46.98
12475;BME280;6302;42.624;23.334;2023-04-01T11:42:48;91900.78;;;17.20;60.16
12475;BME280;6302;42.624;23.334;2023-04-01T11:45:24;91910.84;;;16.61;67.48
12475;BME280;6302;42.624;23.334;2023-04-01T11:48:09;91951.56;;;16.26;76.80
12475;BME280;6302;42.624;23.334;2023-04-01T11:50:50;91952.34;;;15.65;81.01
12475;BME280;6302;42.624;23.334;2023-04-01T11:53:28;91970.19;;;14.93;90.31
12475;BME280;6302;42.624;23.334;2023-04-01T11:56:09;91993.28;;;14.37;100.00
12475;BME280;6302;42.624;23.334;2023-04-01T11:59:27;92012.44;;;13.50;100.00
12475;BME280;6302;42.624;23.334;2023-04-01T12:02:09;92021.84;;;12.50;100.00
12475;BME280;6302;42.624;23.334;2023-04-01T12:07:53;91963.44;;;12.06;100.00
12475;BME280;6302;42.624;23.334;2023-04-01T12:10:26;91983.38;;;11.89;100.00
12475;BME280;6302;42.624;23.334;2023-04-01T12:13:02;91980.78;;;11.64;100.00
12475;BME280;6302;42.624;23.334;2023-04-01T12:15:38;91965.03;;;11.82;100.00
12475;BME280;6302;42.624;23.334;2023-04-01T12:18:17;91973.72;;;11.83;100.00
12475;BME280;6302;42.624;23.334;2023-04-01T12:20:50;91981.22;;;11.97;100.00
12475;BME280;6302;42.624;23.334;2023-04-01T12:23:41;91987.88;;;12.01;100.00
12475;BME280;6302;42.624;23.334;2023-04-01T12:29:44;91994.91;;;12.60;100.00
12475;BME280;6302;42.624;23.334;2023-04-01T12:32:22;91965.91;;;12.84;100.00
12475;BME280;6302;42.624;23.334;2023-04-01T12:35:00;91980.84;;;13.12;100.00
12475;BME280;6302;42.624;23.334;2023-04-01T12:37:36;91973.09;;;13.05;100.00
12475;BME280;6302;42.624;23.334;2023-04-01T12:40:26;92000.69;;;13.29;100.00
12475;BME280;6302;42.624;23.334;2023-04-01T12:43:05;91997.94;;;13.11;100.00
12475;BME280;6302;42.624;23.334;2023-04-01T12:45:43;92017.59;;;12.74;100.00
12475;BME280;6302;42.624;23.334;2023-04-01T12:48:27;92000.13;;;12.20;100.00
12475;BME280;6302;42.624;23.334;2023-04-01T12:51:23;92008.03;;;12.11;100.00
12475;BME280;6302;42.624;23.334;2023-04-01T12:56:58;92011.06;;;11.88;100.00
12475;BME280;6302;42.624;23.334;2023-04-01T12:59:43;92018.13;;;11.82;100.00
12475;BME280;6302;42.624;23.334;2023-04-01T13:02:26;91998.44;;;11.92;100.00
12475;BME280;6302;42.624;23.334;2023-04-01T13:05:24;91978.13;;;11.98;100.00
12475;BME280;6302;42.624;23.334;2023-04-01T13:08:02;91992.88;;;11.78;100.00
12475;BME280;6302;42.624;23.334;2023-04-01T13:10:41;92011.81;;;11.89;100.00
12475;BME280;6302;42.624;23.334;2023-04-01T13:16:05;91926.69;;;11.83;100.00
12475;BME280;6302;42.624;23.334;2023-04-01T13:18:44;91915.75;;;12.03;100.00
12475;BME280;6302;42.624;23.334;2023-04-01T13:21:21;91911.09;;;12.37;100.00
12475;BME280;6302;42.624;23.334;2023-04-01T13:24:02;91914.78;;;12.71;100.00
12475;BME280;6302;42.624;23.334;2023-04-01T13:26:37;91908.09;;;13.06;100.00
12475;BME280;6302;42.624;23.334;2023-04-01T13:29:14;91904.19;;;13.38;100.00
12475;BME280;6302;42.624;23.334;2023-04-01T13:31:53;91891.34;;;13.54;100.00
12475;BME280;6302;42.624;23.334;2023-04-01T13:34:33;91883.00;;;13.07;100.00
12475;BME280;6302;42.624;23.334;2023-04-01T13:37:13;91914.97;;;12.76;100.00
12475;BME280;6302;42.624;23.334;2023-04-01T13:39:57;91902.13;;;12.84;100.00
12475;BME280;6302;42.624;23.334;2023-04-01T13:42:33;91903.44;;;12.79;100.00
12475;BME280;6302;42.624;23.334;2023-04-01T13:45:11;91909.69;;;12.94;100.00
12475;BME280;6302;42.624;23.334;2023-04-01T13:48:03;91910.66;;;13.19;100.00
12475;BME280;6302;42.624;23.334;2023-04-01T13:56:42;91897.84;;;13.90;90.36
12475;BME280;6302;42.624;23.334;2023-04-01T13:59:40;91880.94;;;13.93;84.69
12475;BME280;6302;42.624;23.334;2023-04-01T14:02:31;91891.88;;;14.31;91.02
12475;BME280;6302;42.624;23.334;2023-04-01T14:05:15;91858.41;;;14.39;81.36
12475;BME280;6302;42.624;23.334;2023-04-01T14:07:58;91859.72;;;14.44;84.03
12475;BME280;6302;42.624;23.334;2023-04-01T14:10:36;91854.25;;;14.20;80.74
12475;BME280;6302;42.624;23.334;2023-04-01T14:13:12;91854.88;;;14.15;78.20
12475;BME280;6302;42.624;23.334;2023-04-01T14:15:50;91858.72;;;14.14;77.29
12475;BME280;6302;42.624;23.334;2023-04-01T14:18:45;91853.41;;;14.05;78.43
12475;BME280;6302;42.624;23.334;2023-04-01T14:21:29;91851.63;;;14.11;80.87
12475;BME280;6302;42.624;23.334;2023-04-01T14:27:17;91829.72;;;14.16;78.92
12475;BME280;6302;42.624;23.334;2023-04-01T14:29:58;91816.41;;;14.16;78.83
12475;BME280;6302;42.624;23.334;2023-04-01T14:32:35;91823.50;;;14.10;76.59
12475;BME280;6302;42.624;23.334;2023-04-01T14:35:22;91830.31;;;14.11;74.73
12475;BME280;6302;42.624;23.334;2023-04-01T14:38:02;91846.03;;;14.09;72.88
12475;BME280;6302;42.624;23.334;2023-04-01T14:40:44;91802.34;;;14.15;74.72
12475;BME280;6302;42.624;23.334;2023-04-01T14:43:47;91835.28;;;14.27;71.88
12475;BME280;6302;42.624;23.334;2023-04-01T14:46:26;91823.94;;;14.17;73.98
12475;BME280;6302;42.624;23.334;2023-04-01T14:49:02;91827.88;;;14.40;75.58